createdAt,value
2023-05-24T00:00:09.694Z,99268.31
2023-05-24T00:02:38.111Z,99278.78
2023-05-24T00:05:08.177Z,99278.25
2023-05-24T00:07:37.135Z,99286.44
2023-05-24T00:10:08.734Z,99285.66
2023-05-24T00:12:36.272Z,99276.53
2023-05-24T00:15:04.416Z,99280.00
2023-05-24T00:17:32.333Z,99277.72
2023-05-24T00:19:59.963Z,99273.03
2023-05-24T00:22:27.524Z,99274.88
2023-05-24T00:24:55.109Z,99279.19
2023-05-24T00:27:22.628Z,99284.97
2023-05-24T00:29:50.112Z,99279.69
2023-05-24T00:32:17.645Z,99284.00
2023-05-24T00:34:45.156Z,99288.91
2023-05-24T00:37:13.021Z,99273.09
2023-05-24T00:39:41.357Z,99271.03
2023-05-24T00:42:08.979Z,99271.63
2023-05-24T00:44:36.586Z,99265.28
2023-05-24T00:47:04.591Z,99271.00
2023-05-24T00:49:33.049Z,99264.31
2023-05-24T00:52:01.398Z,99262.00
2023-05-24T00:54:30.449Z,99260.56
2023-05-24T00:56:58.518Z,99268.72
2023-05-24T00:59:27.440Z,99266.31
2023-05-24T01:01:55.695Z,99266.41
2023-05-24T01:04:23.697Z,99273.31
2023-05-24T01:07:11.049Z,99268.78
2023-05-24T01:10:02.189Z,99273.50
2023-05-24T01:12:53.882Z,99268.41
2023-05-24T01:15:47.493Z,99273.84
2023-05-24T01:18:26.337Z,99268.78
2023-05-24T01:21:14.791Z,99271.28
2023-05-24T01:24:13.867Z,99269.56
2023-05-24T01:27:08.188Z,99274.94
2023-05-24T01:29:37.062Z,99278.56
2023-05-24T01:32:05.951Z,99286.47
2023-05-24T01:34:33.589Z,99280.84
2023-05-24T01:37:01.070Z,99286.44
2023-05-24T01:39:31.051Z,99277.94
2023-05-24T01:42:15.624Z,99285.16
2023-05-24T01:45:05.161Z,99282.19
2023-05-24T01:47:50.794Z,99287.59
2023-05-24T01:50:29.845Z,99290.22
2023-05-24T01:53:09.577Z,99294.63
2023-05-24T01:55:38.952Z,99298.88
2023-05-24T01:58:08.755Z,99301.44
2023-05-24T02:00:36.600Z,99300.00
2023-05-24T02:03:06.388Z,99295.41
2023-05-24T02:05:34.226Z,99295.84
2023-05-24T02:08:06.573Z,99294.53
2023-05-24T02:10:34.069Z,99292.22
2023-05-24T02:13:01.653Z,99296.88
2023-05-24T02:15:30.539Z,99292.41
2023-05-24T02:17:59.266Z,99303.09
2023-05-24T02:20:28.627Z,99299.38
2023-05-24T02:22:56.549Z,99303.47
2023-05-24T02:25:27.124Z,99297.78
2023-05-24T02:27:54.705Z,99301.28
2023-05-24T02:30:22.177Z,99302.00
2023-05-24T02:32:49.757Z,99310.88
2023-05-24T02:35:17.456Z,99307.81
2023-05-24T02:37:45.107Z,99302.97
2023-05-24T02:40:13.589Z,99303.66
2023-05-24T02:42:41.420Z,99293.88
2023-05-24T02:45:09.470Z,99296.41
2023-05-24T02:47:37.034Z,99301.69
2023-05-24T02:50:05.012Z,99300.94
2023-05-24T02:52:33.178Z,99298.63
2023-05-24T02:55:00.872Z,99296.63
2023-05-24T02:57:28.924Z,99304.53
2023-05-24T02:59:56.482Z,99297.19
2023-05-24T03:02:24.467Z,99301.19
2023-05-24T03:04:52.895Z,99301.47
2023-05-24T03:07:20.507Z,99301.34
2023-05-24T03:09:48.047Z,99299.50
2023-05-24T03:12:15.851Z,99299.59
2023-05-24T03:14:43.575Z,99301.78
2023-05-24T03:17:11.952Z,99299.84
2023-05-24T03:19:39.546Z,99302.34
2023-05-24T03:22:07.089Z,99307.88
2023-05-24T03:24:38.546Z,99303.44
2023-05-24T03:27:08.807Z,99305.06
2023-05-24T03:29:36.429Z,99302.34
2023-05-24T03:32:04.743Z,99297.97
2023-05-24T03:34:32.412Z,99308.88
2023-05-24T03:37:00.374Z,99308.50
2023-05-24T03:39:28.373Z,99312.34
2023-05-24T03:42:03.626Z,99310.38
2023-05-24T03:44:32.376Z,99307.56
2023-05-24T03:47:00.470Z,99308.13
2023-05-24T03:49:28.800Z,99309.63
2023-05-24T03:51:56.462Z,99312.44
2023-05-24T03:54:24.033Z,99313.00
2023-05-24T03:56:53.552Z,99310.38
2023-05-24T03:59:22.536Z,99312.94
2023-05-24T04:01:50.193Z,99324.34
2023-05-24T04:04:18.008Z,99327.75
2023-05-24T04:06:45.595Z,99337.28
2023-05-24T04:09:14.900Z,99333.97
2023-05-24T04:11:42.700Z,99340.88
2023-05-24T04:14:12.553Z,99332.75
2023-05-24T04:16:41.742Z,99344.69
2023-05-24T04:19:09.405Z,99357.22
2023-05-24T04:21:38.346Z,99343.22
2023-05-24T04:24:07.200Z,99349.16
2023-05-24T04:26:37.888Z,99351.41
2023-05-24T04:29:05.637Z,99358.22
2023-05-24T04:31:34.633Z,99353.47
2023-05-24T04:34:03.422Z,99349.25
2023-05-24T04:36:34.012Z,99353.59
2023-05-24T04:39:04.871Z,99348.84
2023-05-24T04:41:32.538Z,99358.66
2023-05-24T04:44:00.169Z,99357.06
2023-05-24T04:46:27.857Z,99361.91
2023-05-24T04:48:55.488Z,99364.66
2023-05-24T04:51:23.633Z,99352.88
2023-05-24T04:53:51.261Z,99350.41
2023-05-24T04:56:20.155Z,99358.69
2023-05-24T04:58:48.797Z,99362.59
2023-05-24T05:01:16.341Z,99356.78
2023-05-24T05:03:46.215Z,99357.97
2023-05-24T05:06:13.962Z,99356.31
2023-05-24T05:08:41.597Z,99354.72
2023-05-24T05:11:09.496Z,99357.22
2023-05-24T05:13:37.032Z,99360.00
2023-05-24T05:16:05.466Z,99367.09
2023-05-24T05:18:34.057Z,99357.03
2023-05-24T05:21:03.178Z,99364.84
2023-05-24T05:23:31.388Z,99368.47
2023-05-24T05:25:59.081Z,99361.81
2023-05-24T05:28:26.614Z,99362.53
2023-05-24T05:30:54.175Z,99364.25
2023-05-24T05:33:21.716Z,99365.59
2023-05-24T05:35:49.333Z,99365.06
2023-05-24T05:38:17.092Z,99369.34
2023-05-24T05:40:44.754Z,99373.34
2023-05-24T05:43:12.398Z,99368.53
2023-05-24T05:45:40.378Z,99378.28
2023-05-24T05:48:08.133Z,99378.50
2023-05-24T05:50:35.716Z,99377.88
2023-05-24T05:53:03.692Z,99384.81
2023-05-24T05:55:31.274Z,99392.59
2023-05-24T05:57:58.832Z,99389.53
2023-05-24T06:00:26.678Z,99393.56
2023-05-24T06:02:54.336Z,99400.06
2023-05-24T06:05:22.178Z,99405.06
2023-05-24T06:07:49.884Z,99402.00
2023-05-24T06:10:17.612Z,99407.25
2023-05-24T06:12:45.196Z,99400.47
2023-05-24T06:15:14.198Z,99412.72
2023-05-24T06:17:43.860Z,99406.38
2023-05-24T06:20:17.801Z,99412.94
2023-05-24T06:22:46.380Z,99406.72
2023-05-24T06:25:15.502Z,99404.78
2023-05-24T06:27:44.014Z,99409.38
2023-05-24T06:30:13.521Z,99417.41
2023-05-24T06:32:41.325Z,99406.81
2023-05-24T06:35:09.665Z,99405.69
2023-05-24T06:37:38.724Z,99409.00
2023-05-24T06:40:11.457Z,99405.44
2023-05-24T06:42:40.918Z,99406.88
2023-05-24T06:45:09.463Z,99402.69
2023-05-24T06:47:37.298Z,99405.81
2023-05-24T06:50:05.564Z,99408.38
2023-05-24T06:52:34.346Z,99405.41
2023-05-24T06:55:01.899Z,99398.88
2023-05-24T06:57:29.488Z,99400.69
2023-05-24T06:59:57.343Z,99401.53
2023-05-24T07:02:27.675Z,99394.50
2023-05-24T07:04:55.721Z,99394.69
2023-05-24T07:07:23.380Z,99400.47
2023-05-24T07:09:51.187Z,99399.78
2023-05-24T07:12:18.822Z,99400.25
2023-05-24T07:14:47.753Z,99389.28
2023-05-24T07:17:15.410Z,99392.00
2023-05-24T07:19:43.004Z,99390.09
2023-05-24T07:22:11.188Z,99390.06
2023-05-24T07:24:39.056Z,99397.78
2023-05-24T07:27:06.677Z,99397.84
2023-05-24T07:29:34.297Z,99391.00
2023-05-24T07:32:01.879Z,99390.97
2023-05-24T07:34:30.280Z,99394.41
2023-05-24T07:37:00.733Z,99390.63
2023-05-24T07:39:28.950Z,99386.78
2023-05-24T07:41:56.720Z,99389.09
2023-05-24T07:44:24.365Z,99390.59
2023-05-24T07:46:52.216Z,99387.88
2023-05-24T07:49:20.096Z,99391.69
2023-05-24T07:51:48.201Z,99387.41
2023-05-24T07:54:16.143Z,99391.63
2023-05-24T07:56:43.748Z,99388.13
2023-05-24T07:59:11.483Z,99389.63
2023-05-24T08:01:38.970Z,99387.28
2023-05-24T08:04:08.858Z,99386.28
2023-05-24T08:06:36.937Z,99390.91
2023-05-24T08:09:05.347Z,99386.19
2023-05-24T08:11:32.892Z,99388.22
2023-05-24T08:14:00.495Z,99378.00
2023-05-24T08:16:28.108Z,99380.56
2023-05-24T08:18:55.733Z,99377.56
2023-05-24T08:21:23.698Z,99382.69
2023-05-24T08:23:51.307Z,99389.13
2023-05-24T08:26:20.927Z,99385.09
2023-05-24T08:28:48.944Z,99384.75
2023-05-24T08:31:17.088Z,99383.28
2023-05-24T08:33:45.708Z,99379.63
2023-05-24T08:36:13.271Z,99379.19
2023-05-24T08:38:40.751Z,99384.91
2023-05-24T08:41:08.559Z,99380.75
2023-05-24T08:43:36.192Z,99382.00
2023-05-24T08:46:05.948Z,99385.56
2023-05-24T08:48:36.512Z,99386.66
2023-05-24T08:51:04.401Z,99390.63
2023-05-24T08:53:34.190Z,99386.22
2023-05-24T08:56:01.952Z,99399.94
2023-05-24T08:58:30.572Z,99396.69
2023-05-24T09:00:59.727Z,99391.56
2023-05-24T09:03:28.108Z,99388.00
2023-05-24T09:05:56.051Z,99381.19
2023-05-24T09:08:23.819Z,99385.63
2023-05-24T09:10:55.352Z,99390.38
2023-05-24T09:13:25.286Z,99379.84
2023-05-24T09:15:54.486Z,99377.63
2023-05-24T09:18:22.037Z,99385.31
2023-05-24T09:20:49.773Z,99388.34
2023-05-24T09:23:18.476Z,99392.78
2023-05-24T09:25:47.474Z,99387.88
2023-05-24T09:28:18.243Z,99388.47
2023-05-24T09:31:08.049Z,99385.81
2023-05-24T09:33:36.606Z,99384.03
2023-05-24T09:36:07.143Z,99378.84
2023-05-24T09:38:36.769Z,99382.06
2023-05-24T09:41:08.867Z,99373.50
2023-05-24T09:43:49.712Z,99370.69
2023-05-24T09:46:20.073Z,99378.78
2023-05-24T09:49:03.697Z,99381.41
2023-05-24T09:51:31.392Z,99377.34
2023-05-24T09:54:03.736Z,99379.28
2023-05-24T09:56:34.104Z,99371.81
2023-05-24T09:59:10.475Z,99370.03
2023-05-24T10:01:38.498Z,99372.09
2023-05-24T10:04:10.027Z,99366.78
2023-05-24T10:06:40.177Z,99365.94
2023-05-24T10:09:10.057Z,99358.16
2023-05-24T10:11:38.417Z,99360.88
2023-05-24T10:14:07.461Z,99356.31
2023-05-24T10:16:37.275Z,99359.13
2023-05-24T10:19:07.412Z,99356.28
2023-05-24T10:21:39.002Z,99357.06
2023-05-24T10:24:09.214Z,99359.06
2023-05-24T10:26:40.084Z,99352.72
2023-05-24T10:29:14.539Z,99349.81
2023-05-24T10:31:43.491Z,99354.75
2023-05-24T10:34:11.606Z,99353.16
2023-05-24T10:36:41.530Z,99345.09
2023-05-24T10:39:12.732Z,99349.22
2023-05-24T10:41:42.192Z,99342.59
2023-05-24T10:44:18.736Z,99340.31
2023-05-24T10:47:10.145Z,99331.06
2023-05-24T10:50:00.262Z,99333.75
2023-05-24T10:52:37.518Z,99334.66
2023-05-24T10:55:09.551Z,99339.59
2023-05-24T10:57:39.057Z,99333.00
2023-05-24T11:00:35.426Z,99338.19
2023-05-24T11:03:23.510Z,99333.50
2023-05-24T11:05:59.291Z,99324.47
2023-05-24T11:08:33.401Z,99326.59
2023-05-24T11:11:31.188Z,99324.16
2023-05-24T11:14:01.841Z,99330.28
2023-05-24T11:16:40.967Z,99326.91
2023-05-24T11:19:18.830Z,99325.25
2023-05-24T11:21:53.455Z,99329.50
2023-05-24T11:24:22.335Z,99327.88
2023-05-24T11:26:51.552Z,99335.19
2023-05-24T11:29:23.356Z,99324.63
2023-05-24T11:31:57.853Z,99330.16
2023-05-24T11:34:27.439Z,99327.34
2023-05-24T11:36:55.483Z,99331.03
2023-05-24T11:39:27.045Z,99314.94
2023-05-24T11:41:55.143Z,99312.56
2023-05-24T11:44:23.859Z,99303.72
2023-05-24T11:47:00.745Z,99291.91
2023-05-24T11:49:28.967Z,99301.75
2023-05-24T11:51:58.036Z,99289.44
2023-05-24T11:54:27.683Z,99291.59
2023-05-24T11:56:55.750Z,99288.66
2023-05-24T11:59:29.076Z,99286.19
2023-05-24T12:02:05.630Z,99277.84
2023-05-24T12:04:37.292Z,99280.16
2023-05-24T12:07:05.700Z,99267.31
2023-05-24T12:09:33.625Z,99274.34
2023-05-24T12:12:30.292Z,99265.38
2023-05-24T12:15:01.875Z,99274.44
2023-05-24T12:17:29.472Z,99262.59
2023-05-24T12:19:57.218Z,99250.88
2023-05-24T12:22:30.872Z,99259.19
2023-05-24T12:24:59.412Z,99255.97
2023-05-24T12:27:30.852Z,99247.25
2023-05-24T12:30:10.007Z,99242.13
2023-05-24T12:32:37.631Z,99244.06
2023-05-24T12:35:09.262Z,99243.06
2023-05-24T12:37:36.800Z,99242.34
2023-05-24T12:40:14.293Z,99241.91
2023-05-24T12:42:43.229Z,99238.28
2023-05-24T12:45:13.853Z,99238.44
2023-05-24T12:47:43.201Z,99233.91
2023-05-24T12:50:11.623Z,99229.84
2023-05-24T12:52:39.122Z,99234.81
2023-05-24T12:55:10.366Z,99236.69
2023-05-24T12:57:38.486Z,99244.78
2023-05-24T13:00:27.283Z,99247.06
2023-05-24T13:03:01.238Z,99234.66
2023-05-24T13:05:30.128Z,99243.66
2023-05-24T13:07:58.668Z,99239.41
2023-05-24T13:10:26.561Z,99237.06
2023-05-24T13:12:54.312Z,99236.84
2023-05-24T13:15:24.073Z,99239.81
2023-05-24T13:17:51.717Z,99238.44
2023-05-24T13:20:24.160Z,99245.97
2023-05-24T13:22:53.864Z,99253.22
2023-05-24T13:25:22.651Z,99252.84
2023-05-24T13:27:50.436Z,99255.66
2023-05-24T13:30:18.020Z,99260.97
2023-05-24T13:32:48.735Z,99260.38
2023-05-24T13:35:16.756Z,99249.09
2023-05-24T13:37:44.436Z,99246.94
2023-05-24T13:40:12.396Z,99247.16
2023-05-24T13:42:40.437Z,99253.59
2023-05-24T13:45:09.076Z,99243.88
2023-05-24T13:47:40.876Z,99245.94
2023-05-24T13:50:10.338Z,99244.88
2023-05-24T13:52:38.406Z,99243.00
2023-05-24T13:55:06.820Z,99261.84
2023-05-24T13:57:50.382Z,99271.13
2023-05-24T14:00:20.519Z,99280.75
2023-05-24T14:02:51.829Z,99285.88
2023-05-24T14:05:26.643Z,99302.47
2023-05-24T14:07:56.308Z,99290.88
2023-05-24T14:10:24.481Z,99279.31
2023-05-24T14:13:11.828Z,99275.13
2023-05-24T14:15:44.966Z,99279.94
2023-05-24T14:18:14.323Z,99282.16
2023-05-24T14:20:44.252Z,99285.19
2023-05-24T14:23:12.988Z,99289.84
2023-05-24T14:25:46.548Z,99284.00
2023-05-24T14:28:14.643Z,99279.44
2023-05-24T14:30:42.314Z,99285.31
2023-05-24T14:33:11.997Z,99280.56
2023-05-24T14:35:40.235Z,99272.94
2023-05-24T14:38:10.682Z,99275.06
2023-05-24T14:40:42.743Z,99281.56
2023-05-24T14:43:13.912Z,99275.06
2023-05-24T14:45:48.298Z,99269.25
2023-05-24T14:48:17.530Z,99271.53
2023-05-24T14:50:46.875Z,99267.22
2023-05-24T14:53:18.640Z,99269.25
2023-05-24T14:55:49.639Z,99270.09
2023-05-24T14:58:17.264Z,99269.56
2023-05-24T15:00:47.942Z,99272.53
2023-05-24T15:03:18.670Z,99265.19
2023-05-24T15:05:49.135Z,99260.69
2023-05-24T15:08:16.916Z,99260.63
2023-05-24T15:10:45.993Z,99259.25
2023-05-24T15:13:14.098Z,99269.03
2023-05-24T15:15:45.768Z,99261.66
2023-05-24T15:18:13.570Z,99270.94
2023-05-24T15:20:43.508Z,99278.06
2023-05-24T15:23:13.373Z,99277.31
2023-05-24T15:25:42.856Z,99278.94
2023-05-24T15:28:12.916Z,99273.41
2023-05-24T15:30:44.456Z,99276.66
2023-05-24T15:33:13.661Z,99275.06
2023-05-24T15:35:41.651Z,99285.72
2023-05-24T15:38:09.279Z,99292.25
2023-05-24T15:40:38.567Z,99292.97
2023-05-24T15:43:08.313Z,99296.84
2023-05-24T15:45:38.089Z,99300.78
2023-05-24T15:48:05.869Z,99307.22
2023-05-24T15:50:49.333Z,99299.69
2023-05-24T15:53:25.404Z,99306.84
2023-05-24T15:55:55.650Z,99301.94
2023-05-24T15:58:23.237Z,99304.88
2023-05-24T16:00:53.496Z,99308.75
2023-05-24T16:03:26.853Z,99305.59
2023-05-24T16:05:55.211Z,99306.16
2023-05-24T16:08:27.804Z,99307.47
2023-05-24T16:10:56.398Z,99307.53
2023-05-24T16:13:28.364Z,99300.69
2023-05-24T16:15:56.257Z,99307.59
2023-05-24T16:18:23.902Z,99302.00
2023-05-24T16:20:52.093Z,99299.16
2023-05-24T16:23:28.589Z,99307.66
2023-05-24T16:25:56.899Z,99304.75
2023-05-24T16:28:25.152Z,99301.69
2023-05-24T16:30:56.080Z,99297.75
2023-05-24T16:33:25.200Z,99293.41
2023-05-24T16:35:58.178Z,99301.69
2023-05-24T16:38:27.018Z,99296.41
2023-05-24T16:40:55.809Z,99286.59
2023-05-24T16:43:24.033Z,99291.94
2023-05-24T16:45:51.989Z,99293.50
2023-05-24T16:48:21.981Z,99293.72
2023-05-24T16:50:51.677Z,99291.28
2023-05-24T16:53:22.947Z,99288.19
2023-05-24T16:55:53.910Z,99292.84
2023-05-24T16:58:28.085Z,99298.66
2023-05-24T17:00:57.428Z,99310.19
2023-05-24T17:03:30.661Z,99312.84
2023-05-24T17:06:05.228Z,99321.22
2023-05-24T17:08:38.045Z,99318.91
2023-05-24T17:11:26.093Z,99320.78
2023-05-24T17:13:53.613Z,99327.63
2023-05-24T17:16:21.998Z,99333.31
2023-05-24T17:18:51.152Z,99332.53
2023-05-24T17:21:18.781Z,99343.22
2023-05-24T17:23:48.738Z,99340.53
2023-05-24T17:26:18.321Z,99345.06
2023-05-24T17:28:47.371Z,99338.59
2023-05-24T17:31:18.264Z,99343.91
2023-05-24T17:33:46.321Z,99346.97
2023-05-24T17:36:17.712Z,99356.06
2023-05-24T17:38:49.782Z,99353.00
2023-05-24T17:41:17.706Z,99352.19
2023-05-24T17:43:46.767Z,99360.91
2023-05-24T17:46:14.573Z,99361.25
2023-05-24T17:48:45.561Z,99359.66
2023-05-24T17:51:20.827Z,99367.66
2023-05-24T17:53:51.461Z,99363.81
2023-05-24T17:56:23.580Z,99371.00
2023-05-24T17:58:51.543Z,99363.34
2023-05-24T18:01:19.650Z,99361.75
2023-05-24T18:03:53.605Z,99371.19
2023-05-24T18:06:21.297Z,99373.41
2023-05-24T18:08:48.831Z,99375.28
2023-05-24T18:11:16.456Z,99377.91
2023-05-24T18:14:04.564Z,99384.38
2023-05-24T18:16:32.258Z,99380.16
2023-05-24T18:18:59.885Z,99377.44
2023-05-24T18:21:48.467Z,99385.03
2023-05-24T18:24:16.565Z,99386.44
2023-05-24T18:26:47.230Z,99392.22
2023-05-24T18:29:17.030Z,99387.97
2023-05-24T18:31:46.280Z,99392.84
2023-05-24T18:34:14.371Z,99393.59
2023-05-24T18:36:43.852Z,99399.97
2023-05-24T18:39:11.438Z,99406.09
2023-05-24T18:41:39.506Z,99407.56
2023-05-24T18:44:08.227Z,99410.53
2023-05-24T18:46:38.199Z,99415.44
2023-05-24T18:49:10.928Z,99415.09
2023-05-24T18:51:39.228Z,99416.13
2023-05-24T18:54:06.864Z,99414.69
2023-05-24T18:56:37.981Z,99425.63
2023-05-24T18:59:09.474Z,99424.06
2023-05-24T19:01:38.607Z,99417.91
2023-05-24T19:04:06.284Z,99422.38
2023-05-24T19:06:34.232Z,99418.53
2023-05-24T19:09:04.379Z,99422.69
2023-05-24T19:11:31.954Z,99415.47
2023-05-24T19:13:59.529Z,99419.59
2023-05-24T19:16:27.644Z,99426.47
2023-05-24T19:18:56.256Z,99427.91
2023-05-24T19:21:24.788Z,99430.22
2023-05-24T19:23:52.613Z,99426.41
2023-05-24T19:26:24.004Z,99430.44
2023-05-24T19:28:56.639Z,99440.97
2023-05-24T19:31:25.832Z,99437.38
2023-05-24T19:34:00.675Z,99440.50
2023-05-24T19:36:32.928Z,99437.56
2023-05-24T19:39:01.650Z,99433.91
2023-05-24T19:41:29.349Z,99441.84
2023-05-24T19:44:00.435Z,99445.97
2023-05-24T19:46:28.726Z,99448.25
2023-05-24T19:48:58.181Z,99445.81
2023-05-24T19:51:27.177Z,99442.75
2023-05-24T19:53:56.568Z,99450.25
2023-05-24T19:56:24.183Z,99450.56
2023-05-24T19:59:11.684Z,99446.06
2023-05-24T20:01:42.992Z,99450.97
2023-05-24T20:04:12.264Z,99449.50
2023-05-24T20:06:41.683Z,99448.56
2023-05-24T20:09:10.358Z,99462.13
2023-05-24T20:11:39.399Z,99455.59
2023-05-24T20:14:07.483Z,99451.47
2023-05-24T20:16:35.153Z,99452.53
2023-05-24T20:19:03.136Z,99459.00
2023-05-24T20:21:31.313Z,99452.03
2023-05-24T20:23:59.987Z,99458.09
2023-05-24T20:26:29.341Z,99458.59
2023-05-24T20:28:57.142Z,99464.63
2023-05-24T20:31:26.015Z,99462.88
2023-05-24T20:33:56.072Z,99462.78
2023-05-24T20:36:23.823Z,99455.53
2023-05-24T20:38:52.967Z,99461.00
2023-05-24T20:41:21.956Z,99464.94
2023-05-24T20:43:51.521Z,99469.13
2023-05-24T20:46:19.340Z,99473.97
2023-05-24T20:48:46.884Z,99469.00
2023-05-24T20:51:14.456Z,99467.66
2023-05-24T20:53:41.964Z,99464.66
2023-05-24T20:56:09.515Z,99461.59
2023-05-24T20:58:37.208Z,99461.22
2023-05-24T21:01:04.903Z,99461.44
2023-05-24T21:03:32.468Z,99459.91
2023-05-24T21:05:59.955Z,99465.75
2023-05-24T21:08:27.510Z,99463.81
2023-05-24T21:10:57.482Z,99460.03
2023-05-24T21:13:25.659Z,99468.84
2023-05-24T21:15:55.063Z,99464.50
2023-05-24T21:18:22.935Z,99467.56
2023-05-24T21:20:51.837Z,99461.59
2023-05-24T21:23:19.918Z,99472.88
2023-05-24T21:25:49.871Z,99468.06
2023-05-24T21:28:17.774Z,99465.19
2023-05-24T21:30:45.359Z,99460.59
2023-05-24T21:33:13.055Z,99458.88
2023-05-24T21:35:41.092Z,99458.88
2023-05-24T21:38:08.925Z,99457.53
2023-05-24T21:40:37.567Z,99460.19
2023-05-24T21:43:09.680Z,99467.84
2023-05-24T21:45:37.256Z,99472.59
2023-05-24T21:48:07.293Z,99473.91
2023-05-24T21:50:35.941Z,99467.97
2023-05-24T21:53:05.400Z,99468.66
2023-05-24T21:55:33.120Z,99473.78
2023-05-24T21:58:01.202Z,99483.22
2023-05-24T22:00:29.810Z,99478.66
2023-05-24T22:03:17.832Z,99486.81
2023-05-24T22:05:45.644Z,99485.28
2023-05-24T22:08:13.383Z,99468.97
2023-05-24T22:10:44.927Z,99486.44
2023-05-24T22:13:12.641Z,99484.84
2023-05-24T22:15:40.165Z,99472.41
2023-05-24T22:18:08.768Z,99468.88
2023-05-24T22:20:36.876Z,99470.94
2023-05-24T22:23:04.440Z,99459.53
2023-05-24T22:25:31.936Z,99457.22
2023-05-24T22:27:59.470Z,99463.00
2023-05-24T22:30:27.150Z,99465.75
2023-05-24T22:32:55.886Z,99473.34
2023-05-24T22:35:23.561Z,99483.06
2023-05-24T22:37:52.322Z,99489.47
2023-05-24T22:40:20.988Z,99485.53
2023-05-24T22:42:48.521Z,99480.00
2023-05-24T22:45:18.638Z,99476.56
2023-05-24T22:47:51.790Z,99473.50
2023-05-24T22:50:21.029Z,99466.00
2023-05-24T22:52:48.646Z,99467.19
2023-05-24T22:55:16.299Z,99475.13
2023-05-24T22:57:43.834Z,99478.88
2023-05-24T23:00:13.018Z,99473.44
2023-05-24T23:02:40.583Z,99479.41
2023-05-24T23:05:09.566Z,99467.28
2023-05-24T23:07:38.124Z,99468.22
2023-05-24T23:10:06.299Z,99461.66
2023-05-24T23:12:34.269Z,99458.81
2023-05-24T23:15:01.912Z,99463.09
2023-05-24T23:17:29.513Z,99458.78
2023-05-24T23:19:57.242Z,99462.53
2023-05-24T23:22:26.277Z,99466.97
2023-05-24T23:24:53.812Z,99465.78
2023-05-24T23:27:21.396Z,99465.34
2023-05-24T23:29:48.992Z,99467.16
2023-05-24T23:32:17.731Z,99463.38
2023-05-24T23:34:45.225Z,99464.75
2023-05-24T23:37:12.862Z,99471.31
2023-05-24T23:39:40.404Z,99473.63
2023-05-24T23:42:08.051Z,99470.63
2023-05-24T23:44:36.278Z,99469.78
2023-05-24T23:47:04.167Z,99470.28
2023-05-24T23:49:31.848Z,99467.78
2023-05-24T23:51:59.767Z,99472.81
2023-05-24T23:54:27.280Z,99475.44
2023-05-24T23:56:54.789Z,99470.63
2023-05-24T23:59:23.672Z,99468.94
